Time;durP1;ratioP1;P1;durP2;ratioP2;P2;SDS_P1;SDS_P2;PMS_P1;PMS_P2;Temp;Humidity;BMP_temperature;BMP_pressure;BME280_temperature;BME280_humidity;BME280_pressure;Samples;Min_cycle;Max_cycle;Signal;HPM_P1;HPM_P2
2023/07/04 00:00:41;;;;;;;26.88;16.88;;;;;;;-143.21;79.15;71487.25;5107422;28;20291;-76
2023/07/04 00:03:09;;;;;;;32.75;16.63;;;;;;;-143.21;79.53;71499.13;5107914;27;20710;-76
2023/07/04 00:05:36;;;;;;;29.90;16.75;;;;;;;-143.21;80.47;71518.97;5106956;27;20212;-76
2023/07/04 00:08:04;;;;;;;28.42;15.32;;;;;;;-143.21;81.00;71532.84;5106782;28;20231;-76
2023/07/04 00:10:31;;;;;;;26.58;16.30;;;;;;;-143.21;81.52;71536.81;5106549;28;20277;-76
2023/07/04 00:12:57;;;;;;;25.77;15.80;;;;;;;-143.21;81.27;71540.78;5106773;28;20204;-76
2023/07/04 00:15:24;;;;;;;26.00;15.18;;;;;;;-143.21;81.16;71548.72;5106845;28;20203;-76
2023/07/04 00:17:51;;;;;;;22.92;14.88;;;;;;;-143.21;81.38;71554.66;5107140;28;20207;-76
2023/07/04 00:20:20;;;;;;;26.73;15.38;;;;;;;-143.21;81.55;71556.63;5106242;28;20204;-76
2023/07/04 00:22:48;;;;;;;25.88;14.63;;;;;;;-143.21;81.87;71572.50;5107742;27;20319;-76
2023/07/04 00:25:15;;;;;;;27.95;16.30;;;;;;;-143.21;81.52;71574.47;5109901;27;20206;-76
2023/07/04 00:27:42;;;;;;;27.90;16.30;;;;;;;-143.21;81.54;71574.47;5109641;27;20601;-77
2023/07/04 00:30:10;;;;;;;26.88;14.98;;;;;;;-143.21;82.27;71586.38;5106969;27;20211;-76
2023/07/04 00:32:37;;;;;;;27.10;15.48;;;;;;;-143.21;82.73;71584.41;5110809;27;20693;-76
2023/07/04 00:35:04;;;;;;;24.10;15.23;;;;;;;-143.21;82.52;71578.44;5106533;28;21085;-76
2023/07/04 00:37:32;;;;;;;32.22;16.30;;;;;;;-143.21;82.66;71578.44;5107060;27;20207;-77
2023/07/04 00:40:01;;;;;;;26.95;16.30;;;;;;;-143.21;82.59;71582.41;5110771;27;20200;-75
2023/07/04 00:42:29;;;;;;;27.50;16.73;;;;;;;-143.21;83.02;71586.38;5106144;28;20217;-76
2023/07/04 00:44:58;;;;;;;37.35;17.58;;;;;;;-143.21;82.89;71582.41;5106021;28;20620;-76
2023/07/04 00:47:33;;;;;;;25.05;15.27;;;;;;;-143.21;83.21;71588.38;5108423;27;20227;-76
2023/07/04 00:50:07;;;;;;;31.60;17.02;;;;;;;-143.21;83.09;71586.38;5106575;28;20290;-76
2023/07/04 00:52:38;;;;;;;31.95;17.20;;;;;;;-143.21;83.34;71586.38;5104291;28;20766;-76
2023/07/04 00:55:10;;;;;;;32.78;17.33;;;;;;;-143.21;83.47;71582.41;5106570;28;20295;-76
2023/07/04 00:57:37;;;;;;;35.58;19.90;;;;;;;-143.21;83.28;71576.47;5106690;28;20200;-76
2023/07/04 01:00:15;;;;;;;32.35;19.55;;;;;;;-143.21;83.26;71580.44;5106262;28;20212;-77
2023/07/04 01:02:44;;;;;;;35.05;20.45;;;;;;;-143.21;83.26;71580.44;5106701;28;20284;-77
2023/07/04 01:05:11;;;;;;;30.15;17.38;;;;;;;-143.21;83.75;71598.28;5107274;28;20237;-76
2023/07/04 01:07:42;;;;;;;30.88;18.90;;;;;;;-143.21;83.67;71598.28;5106384;28;20227;-76
2023/07/04 01:10:12;;;;;;;30.48;19.48;;;;;;;-143.21;83.81;71596.28;5106999;28;20199;-76
2023/07/04 01:12:40;;;;;;;30.83;18.40;;;;;;;-143.21;83.63;71592.31;5106524;28;20211;-76
2023/07/04 01:15:08;;;;;;;37.15;19.50;;;;;;;-143.21;83.58;71600.25;5109813;27;20204;-76
2023/07/04 01:17:36;;;;;;;36.53;19.15;;;;;;;-143.21;83.80;71612.16;5105726;28;20207;-76
2023/07/04 01:20:06;;;;;;;29.90;19.73;;;;;;;-143.21;83.84;71612.16;5106382;28;20299;-76
2023/07/04 01:22:38;;;;;;;34.42;17.95;;;;;;;-143.21;83.91;71622.06;5105990;28;21571;-76
2023/07/04 01:25:20;;;;;;;28.33;17.58;;;;;;;-143.21;84.30;71626.03;5106074;28;20231;-76
2023/07/04 01:27:51;;;;;;;28.83;17.35;;;;;;;-143.21;84.64;71624.06;5105780;28;20223;-76
2023/07/04 01:30:20;;;;;;;30.88;17.92;;;;;;;-143.21;85.27;71633.97;5109562;28;20689;-76
2023/07/04 01:32:52;;;;;;;31.25;17.10;;;;;;;-143.21;85.20;71635.94;5105825;28;20269;-76
2023/07/04 01:35:19;;;;;;;26.98;15.85;;;;;;;-143.21;85.12;71637.94;5104598;28;20251;-76
2023/07/04 01:37:46;;;;;;;27.23;16.08;;;;;;;-143.21;84.93;71631.97;5106246;28;20203;-76
2023/07/04 01:40:13;;;;;;;25.42;15.48;;;;;;;-143.21;85.09;71639.91;5108985;28;20584;-76
2023/07/04 01:42:40;;;;;;;30.83;15.80;;;;;;;-143.21;85.32;71631.97;5109273;28;20331;-75
2023/07/04 01:45:10;;;;;;;26.48;15.73;;;;;;;-143.21;84.91;71637.94;5105673;28;20256;-75
2023/07/04 01:47:38;;;;;;;25.45;15.70;;;;;;;-143.21;85.23;71633.97;5105327;28;20196;-75
2023/07/04 01:50:08;;;;;;;28.02;14.65;;;;;;;-143.21;84.73;71626.03;5105618;28;20208;-76
2023/07/04 01:52:35;;;;;;;26.00;14.23;;;;;;;-143.21;84.33;71626.03;5103193;28;20917;-75
2023/07/04 01:55:02;;;;;;;24.05;14.25;;;;;;;-143.21;83.63;71622.06;5105537;28;20212;-76
2023/07/04 01:57:29;;;;;;;23.75;14.27;;;;;;;-143.21;83.69;71626.03;5105045;28;20233;-75
2023/07/04 01:59:56;;;;;;;22.92;14.20;;;;;;;-143.21;83.67;71633.97;5105386;28;20207;-75
2023/07/04 02:02:25;;;;;;;29.23;15.45;;;;;;;-143.21;83.95;71635.94;5105686;28;20200;-76
2023/07/04 02:04:52;;;;;;;21.20;13.68;;;;;;;-143.21;84.49;71645.88;5104688;28;20200;-76
2023/07/04 02:07:18;;;;;;;28.95;14.15;;;;;;;-143.21;84.88;71661.72;5104061;28;20633;-76
2023/07/04 02:09:45;;;;;;;28.08;13.52;;;;;;;-143.21;85.08;71669.66;5108167;28;20220;-75
2023/07/04 02:12:12;;;;;;;22.65;13.40;;;;;;;-143.21;84.62;71671.63;5105822;28;20219;-75
2023/07/04 02:14:39;;;;;;;26.63;13.23;;;;;;;-143.21;84.90;71671.63;5104912;28;20211;-76
2023/07/04 02:17:06;;;;;;;21.40;12.65;;;;;;;-143.21;84.64;71671.63;5105236;28;20208;-76
2023/07/04 02:19:34;;;;;;;21.40;12.85;;;;;;;-143.21;84.30;71679.56;5105240;28;20208;-76
2023/07/04 02:22:01;;;;;;;23.70;12.18;;;;;;;-143.21;84.78;71687.50;5105467;28;20603;-76
2023/07/04 02:24:28;;;;;;;21.65;12.45;;;;;;;-143.21;84.74;71697.41;5105168;28;20579;-76
2023/07/04 02:26:55;;;;;;;24.30;13.23;;;;;;;-143.21;84.67;71691.47;5106187;28;20215;-76
2023/07/04 02:29:22;;;;;;;24.95;15.38;;;;;;;-143.21;84.09;71685.50;5104489;28;20230;-76
2023/07/04 02:31:48;;;;;;;37.10;15.02;;;;;;;-143.21;84.99;71691.47;5106000;28;20215;-76
2023/07/04 02:34:15;;;;;;;28.48;17.20;;;;;;;-143.21;85.01;71693.44;5108918;28;20294;-76
2023/07/04 02:36:44;;;;;;;32.25;22.98;;;;;;;-143.21;84.93;71691.47;5110094;28;20211;-76
2023/07/04 02:39:10;;;;;;;41.05;25.55;;;;;;;-143.21;85.04;71687.50;5109832;28;20200;-76
2023/07/04 02:41:37;;;;;;;32.65;23.02;;;;;;;-143.21;84.42;71689.47;5109761;28;20196;-76
2023/07/04 02:44:05;;;;;;;39.70;26.02;;;;;;;-143.21;85.29;71695.44;5109059;28;20290;-76
2023/07/04 02:46:31;;;;;;;53.20;37.53;;;;;;;-143.21;85.45;71703.34;5111079;27;20231;-76
2023/07/04 02:48:58;;;;;;;58.65;41.63;;;;;;;-143.21;85.65;71705.34;5110693;27;20224;-76
2023/07/04 02:51:25;;;;;;;69.65;42.40;;;;;;;-143.21;85.93;71709.31;5109698;28;20235;-76
2023/07/04 02:53:53;;;;;;;51.40;36.05;;;;;;;-143.21;86.23;71705.34;5111128;28;20208;-76
2023/07/04 02:56:20;;;;;;;73.15;49.45;;;;;;;-143.21;85.93;71709.31;5111449;28;20207;-77
2023/07/04 02:58:47;;;;;;;66.55;46.50;;;;;;;-143.21;85.85;71717.25;5109261;27;20299;-76
2023/07/04 03:01:14;;;;;;;61.83;43.05;;;;;;;-143.21;86.20;71725.16;5109044;28;20617;-76
2023/07/04 03:03:41;;;;;;;54.60;35.47;;;;;;;-143.21;86.40;71725.16;5107868;28;20279;-76
2023/07/04 03:06:08;;;;;;;44.85;30.77;;;;;;;-143.21;86.18;71731.13;5109703;28;20211;-75
2023/07/04 03:08:35;;;;;;;41.55;26.40;;;;;;;-143.21;86.56;71735.09;5108870;28;20235;-76
2023/07/04 03:11:03;;;;;;;42.58;27.15;;;;;;;-143.21;86.78;71729.13;5109030;28;20579;-77
2023/07/04 03:13:30;;;;;;;35.70;25.05;;;;;;;-143.21;86.59;71731.13;5108154;28;20210;-76
2023/07/04 03:15:57;;;;;;;33.92;22.80;;;;;;;-143.21;86.85;71731.13;5107938;28;20214;-77
2023/07/04 03:18:24;;;;;;;31.55;19.85;;;;;;;-143.21;86.94;71731.13;5107752;28;20208;-77
2023/07/04 03:20:50;;;;;;;30.40;16.85;;;;;;;-143.21;86.75;71729.13;5108683;28;20199;-77
2023/07/04 03:23:17;;;;;;;22.58;12.02;;;;;;;-143.21;86.23;71723.19;5107506;28;20200;-77
2023/07/04 03:25:44;;;;;;;18.17;10.90;;;;;;;-143.21;85.85;71723.19;5108089;28;20208;-76
2023/07/04 03:28:12;;;;;;;17.92;9.02;;;;;;;-143.21;85.12;71721.22;5110879;27;20211;-76
2023/07/04 03:30:39;;;;;;;15.85;8.90;;;;;;;-143.21;84.68;71715.25;5111591;27;20199;-75
2023/07/04 03:33:06;;;;;;;14.73;8.77;;;;;;;-143.21;84.33;71713.28;5108420;28;20208;-75
2023/07/04 03:35:33;;;;;;;13.43;8.50;;;;;;;-143.21;84.41;71713.28;5107202;27;20236;-77
2023/07/04 03:38:00;;;;;;;14.52;8.52;;;;;;;-143.21;84.21;71705.34;5108090;28;20210;-76
2023/07/04 03:40:27;;;;;;;15.00;7.35;;;;;;;-143.21;83.54;71713.28;5111400;27;20212;-75
2023/07/04 03:42:53;;;;;;;13.63;7.65;;;;;;;-143.21;82.96;71697.41;5107678;28;20208;-76
2023/07/04 03:45:22;;;;;;;11.52;7.85;;;;;;;-143.21;82.98;71697.41;5107617;27;20196;-76
2023/07/04 03:47:48;;;;;;;15.15;7.80;;;;;;;-143.21;82.66;71685.50;5107600;28;20200;-76
2023/07/04 03:50:16;;;;;;;9.13;7.10;;;;;;;-143.21;82.01;71693.44;5107815;28;20752;-78
2023/07/04 03:52:43;;;;;;;11.43;7.28;;;;;;;-143.21;82.28;71703.34;5107460;28;20196;-78
2023/07/04 03:55:10;;;;;;;14.43;8.10;;;;;;;-143.21;82.50;71707.31;5108730;27;20203;-78
2023/07/04 03:57:37;;;;;;;16.50;8.02;;;;;;;-143.21;82.60;71707.31;5107501;28;20222;-78
2023/07/04 04:00:06;;;;;;;12.65;8.43;;;;;;;-143.21;82.91;71711.28;5107898;27;20211;-78
2023/07/04 04:02:34;;;;;;;20.30;8.57;;;;;;;-143.21;82.79;71717.25;5107019;28;20745;-78
2023/07/04 04:05:01;;;;;;;13.27;8.45;;;;;;;-143.21;82.77;71721.22;5105731;28;20276;-78
2023/07/04 04:07:28;;;;;;;16.13;8.15;;;;;;;-143.21;83.07;71721.22;5107006;28;20232;-78
2023/07/04 04:09:55;;;;;;;16.73;7.50;;;;;;;-143.21;83.36;71727.16;5107623;28;20295;-76
2023/07/04 04:12:21;;;;;;;11.52;7.82;;;;;;;-143.21;83.17;71723.19;5109299;27;20258;-77
2023/07/04 04:14:50;;;;;;;13.95;8.02;;;;;;;-143.21;82.87;71717.25;5107185;28;20226;-77
2023/07/04 04:17:17;;;;;;;17.08;8.23;;;;;;;-143.21;82.54;71717.25;5107173;28;20207;-76
2023/07/04 04:19:45;;;;;;;15.07;7.80;;;;;;;-143.21;83.10;71717.25;5107496;28;20203;-77
2023/07/04 04:22:12;;;;;;;18.13;8.52;;;;;;;-143.21;82.42;71705.34;5107749;28;20203;-77
2023/07/04 04:24:40;;;;;;;18.40;8.35;;;;;;;-143.21;82.21;71701.38;5107712;28;20612;-76
2023/07/04 04:27:08;;;;;;;12.90;7.97;;;;;;;-143.21;81.63;71689.47;5107775;28;20222;-76
2023/07/04 04:29:36;;;;;;;14.75;7.97;;;;;;;-143.21;81.83;71689.47;5106583;28;20323;-77
2023/07/04 04:32:03;;;;;;;15.63;8.40;;;;;;;-143.21;81.75;71689.47;5107239;27;20904;-76
2023/07/04 04:34:30;;;;;;;13.02;8.48;;;;;;;-143.21;81.61;71693.44;5106584;28;20227;-76
2023/07/04 04:36:58;;;;;;;12.40;8.18;;;;;;;-143.21;81.47;71693.44;5106861;28;20211;-76
2023/07/04 04:39:27;;;;;;;12.65;8.60;;;;;;;-143.21;81.62;71685.50;5105580;28;20196;-76
2023/07/04 04:41:53;;;;;;;13.75;8.10;;;;;;;-143.21;81.71;71699.41;5106632;28;20204;-75
2023/07/04 04:44:20;;;;;;;15.93;8.00;;;;;;;-143.21;82.59;71721.22;5105569;28;20207;-75
2023/07/04 04:46:48;;;;;;;14.50;8.23;;;;;;;-143.21;83.19;71741.03;5105985;28;20655;-76
2023/07/04 04:49:17;;;;;;;15.32;9.07;;;;;;;-143.21;83.62;71741.03;5105979;28;20220;-76
2023/07/04 04:51:45;;;;;;;16.08;8.60;;;;;;;-143.21;84.24;71735.09;5106529;28;20203;-76
2023/07/04 04:54:14;;;;;;;17.60;9.00;;;;;;;-143.21;84.25;71717.25;5106766;28;20231;-76
2023/07/04 04:56:43;;;;;;;14.18;8.15;;;;;;;-143.21;83.55;71715.25;5110360;28;20215;-75
2023/07/04 04:59:11;;;;;;;13.65;9.35;;;;;;;-143.21;83.53;71713.28;5107014;28;20200;-76
2023/07/04 05:01:39;;;;;;;13.73;8.93;;;;;;;-143.21;83.98;71721.22;5106868;27;20227;-76
2023/07/04 05:04:06;;;;;;;13.38;9.40;;;;;;;-143.21;84.09;71709.31;5086417;28;20208;-76
2023/07/04 05:06:33;;;;;;;14.20;9.57;;;;;;;-143.21;84.30;71711.28;5104152;28;20211;-76
2023/07/04 05:09:00;;;;;;;15.52;9.52;;;;;;;-143.21;84.51;71703.34;5106106;28;20231;-76
2023/07/04 05:11:28;;;;;;;15.57;9.48;;;;;;;-143.21;84.25;71695.44;5105775;28;20313;-75
2023/07/04 05:13:55;;;;;;;11.45;8.50;;;;;;;-143.21;83.80;71691.47;5106160;28;20934;-76
2023/07/04 05:16:22;;;;;;;9.70;8.20;;;;;;;-143.21;83.67;71681.56;5105171;28;20623;-76
2023/07/04 05:18:52;;;;;;;13.20;8.60;;;;;;;-143.21;83.57;71681.56;5105765;28;20230;-76
2023/07/04 05:21:21;;;;;;;15.93;9.63;;;;;;;-143.21;83.23;71665.69;5105397;28;20208;-76
2023/07/04 05:23:49;;;;;;;18.05;9.45;;;;;;;-143.21;82.76;71647.84;5105102;28;20216;-79
2023/07/04 05:26:18;;;;;;;18.10;9.77;;;;;;;-143.21;82.70;71637.94;5105448;28;20920;-76
2023/07/04 05:28:46;;;;;;;17.38;10.07;;;;;;;-143.21;82.23;71631.97;5109396;28;20544;-84
2023/07/04 05:31:15;;;;;;;13.65;9.65;;;;;;;-143.21;82.22;71620.09;5109296;28;20577;-84
2023/07/04 05:33:43;;;;;;;21.52;10.02;;;;;;;-143.21;81.21;71598.28;5109937;28;20196;-85
2023/07/04 05:36:11;;;;;;;15.68;9.27;;;;;;;-143.21;80.62;71576.47;5109224;28;20232;-85
2023/07/04 05:38:39;;;;;;;17.25;9.65;;;;;;;-143.21;80.43;71566.56;5112486;28;20593;-86
2023/07/04 05:41:09;;;;;;;13.32;9.18;;;;;;;-143.21;80.49;71574.47;5112856;28;20200;-85
2023/07/04 05:43:36;;;;;;;16.30;10.40;;;;;;;-143.21;80.55;71564.56;5109588;28;20987;-86
2023/07/04 05:46:05;;;;;;;16.20;10.02;;;;;;;-143.21;80.29;71562.59;5109689;28;20256;-86
2023/07/04 05:48:33;;;;;;;20.33;10.25;;;;;;;-143.21;80.45;71566.56;5113145;28;20273;-85
2023/07/04 05:51:02;;;;;;;19.30;10.38;;;;;;;-143.21;80.24;71570.53;5110074;28;20224;-85
2023/07/04 05:53:32;;;;;;;14.30;10.02;;;;;;;-143.21;80.36;71570.53;5108361;28;20196;-81
2023/07/04 05:56:07;;;;;;;16.00;10.00;;;;;;;-143.21;80.38;71564.56;5109940;28;20191;-85
2023/07/04 05:58:34;;;;;;;13.48;9.52;;;;;;;-143.21;80.31;71532.84;5109146;28;20290;-85
2023/07/04 06:01:07;;;;;;;16.63;9.45;;;;;;;-143.21;78.66;71511.03;5107662;28;20212;-86
2023/07/04 06:03:34;;;;;;;19.67;9.90;;;;;;;-143.21;78.66;71495.19;5107191;28;20992;-86
2023/07/04 06:06:01;;;;;;;14.35;9.35;;;;;;;-143.21;78.98;71487.25;5109125;28;20203;-86
2023/07/04 06:08:28;;;;;;;16.80;9.38;;;;;;;-143.21;78.66;71487.25;5112246;27;20196;-85
2023/07/04 06:10:59;;;;;;;16.20;9.23;;;;;;;-143.21;78.09;71475.34;5113615;28;20253;-86
2023/07/04 06:13:26;;;;;;;15.98;8.40;;;;;;;-143.21;77.28;71475.34;5114249;27;20211;-85
2023/07/04 06:15:53;;;;;;;13.85;8.80;;;;;;;-143.21;77.45;71473.38;5121147;28;20200;-85
2023/07/04 06:18:21;;;;;;;13.15;8.13;;;;;;;-143.21;77.41;71469.41;5121718;27;20234;-86
2023/07/04 06:20:48;;;;;;;10.45;7.35;;;;;;;-143.21;76.66;71457.50;5119530;27;20608;-84
2023/07/04 06:23:15;;;;;;;13.98;8.57;;;;;;;-143.21;75.84;71439.66;5114119;27;20196;-85
2023/07/04 06:25:42;;;;;;;17.70;8.05;;;;;;;-143.21;74.83;71413.88;5114403;27;20196;-86
2023/07/04 06:28:09;;;;;;;15.27;8.13;;;;;;;-143.21;74.31;71400.00;5118837;27;20204;-85
2023/07/04 06:30:38;;;;;;;13.60;8.68;;;;;;;-143.21;74.50;71400.00;5114306;27;20228;-86
2023/07/04 06:33:05;;;;;;;27.48;8.77;;;;;;;-143.21;74.58;71396.03;5112575;28;20253;-78
2023/07/04 06:35:33;;;;;;;15.27;9.20;;;;;;;-143.21;74.64;71405.94;5107940;27;20235;-77
2023/07/04 06:38:00;;;;;;;18.73;12.68;;;;;;;-143.21;74.72;71402.00;5108835;28;20216;-77
2023/07/04 06:40:27;;;;;;;14.85;10.00;;;;;;;-143.21;75.17;71396.03;5109139;28;20199;-76
2023/07/04 06:42:54;;;;;;;23.60;10.40;;;;;;;-143.21;75.43;71394.06;5110807;27;20214;-77
2023/07/04 06:45:21;;;;;;;22.55;9.55;;;;;;;-143.21;75.31;71390.09;5110695;27;20204;-77
2023/07/04 06:47:48;;;;;;;16.40;9.00;;;;;;;-143.21;74.44;71366.31;5108613;27;20227;-76
2023/07/04 06:50:14;;;;;;;18.35;8.90;;;;;;;-143.21;74.01;71350.44;5108737;28;20285;-76
2023/07/04 06:52:43;;;;;;;18.00;9.38;;;;;;;-143.21;73.75;71336.56;5108437;28;20629;-78
2023/07/04 06:55:10;;;;;;;21.58;7.95;;;;;;;-143.21;73.88;71334.59;5116034;27;20941;-91
2023/07/04 06:57:37;;;;;;;10.23;7.65;;;;;;;-143.21;73.93;71330.63;5114951;27;20204;-91
2023/07/04 07:00:05;;;;;;;13.05;7.28;;;;;;;-143.21;72.09;71306.81;5118151;27;20200;-92
2023/07/04 07:02:32;;;;;;;11.15;7.50;;;;;;;-143.21;72.18;71292.94;5120591;27;20738;-91
2023/07/04 07:04:59;;;;;;;12.32;5.30;;;;;;;-143.21;70.18;71273.13;5113342;28;20558;-86
2023/07/04 07:07:26;;;;;;;10.15;5.97;;;;;;;-143.21;69.32;71253.28;5113538;28;20199;-90
2023/07/04 07:09:54;;;;;;;15.77;7.45;;;;;;;-143.21;69.76;71255.28;5114276;28;20223;-91
2023/07/04 07:12:21;;;;;;;16.50;7.15;;;;;;;-143.21;70.11;71249.34;5114982;28;20208;-92
2023/07/04 07:14:48;;;;;;;10.85;7.30;;;;;;;-143.21;70.06;71243.38;5114658;28;20207;-92
2023/07/04 07:17:15;;;;;;;13.27;6.80;;;;;;;-143.21;70.27;71259.25;5113964;27;20228;-90
2023/07/04 07:19:43;;;;;;;14.65;6.88;;;;;;;-143.21;69.73;71251.31;5115081;27;20667;-94
2023/07/04 07:22:10;;;;;;;10.57;6.90;;;;;;;-143.21;70.09;71251.31;5118046;28;20204;-93
2023/07/04 07:24:37;;;;;;;16.08;6.38;;;;;;;-143.21;68.91;71251.31;5118490;27;20206;-92
2023/07/04 07:27:10;;;;;;;15.20;6.75;;;;;;;-143.21;69.72;71245.38;5122947;28;20220;-95
2023/07/04 07:29:37;;;;;;;14.80;7.45;;;;;;;-143.21;69.00;71235.44;5117274;27;20252;-91
2023/07/04 07:32:06;;;;;;;15.18;7.45;;;;;;;-143.21;68.58;71243.38;5117658;28;20200;-93
2023/07/04 07:34:33;;;;;;;9.25;6.80;;;;;;;-143.21;68.53;71241.41;5126001;28;20220;-94
2023/07/04 07:37:02;;;;;;;14.52;7.53;;;;;;;-143.21;68.59;71241.41;5127392;28;20188;-91
2023/07/04 07:39:30;;;;;;;10.98;6.00;;;;;;;-143.21;67.04;71219.59;5129842;27;20230;-92
2023/07/04 07:42:00;;;;;;;9.88;5.53;;;;;;;-143.21;64.84;71201.75;5124006;28;20208;-92
2023/07/04 07:44:34;;;;;;;8.82;5.10;;;;;;;-143.21;64.76;71183.91;5135834;27;20219;-91
2023/07/04 07:47:01;;;;;;;8.63;5.95;;;;;;;-143.21;66.67;71179.94;5127197;28;20195;-90
2023/07/04 07:49:28;;;;;;;11.90;5.70;;;;;;;-143.21;66.34;71177.97;5121909;28;20275;-90
2023/07/04 07:51:55;;;;;;;8.88;5.25;;;;;;;-143.21;66.83;71177.97;5129312;27;20222;-90
2023/07/04 07:54:22;;;;;;;10.27;5.35;;;;;;;-143.21;67.21;71175.97;5121266;28;20200;-89
2023/07/04 07:56:49;;;;;;;10.45;6.03;;;;;;;-143.21;67.32;71172.00;5120193;27;20210;-89
2023/07/04 07:59:16;;;;;;;10.10;6.05;;;;;;;-143.21;66.52;71166.06;5115262;28;20196;-86
2023/07/04 08:01:44;;;;;;;12.45;5.30;;;;;;;-143.21;66.25;71158.13;5116101;28;20196;-81
2023/07/04 08:04:22;;;;;;;;;;;;;;;;;;;;;
2023/07/04 08:06:55;;;;;;;8.82;6.28;;;;;;;-143.21;68.13;71132.38;5113323;27;20203;-85
2023/07/04 08:09:32;;;;;;;8.45;5.30;;;;;;;-143.21;65.76;71122.44;5117370;27;20184;-85
2023/07/04 08:12:06;;;;;;;8.70;4.97;;;;;;;-143.21;66.01;71110.56;5113572;28;20199;-85
2023/07/04 08:15:15;;;;;;;10.52;5.88;;;;;;;-143.21;64.67;71088.75;5113497;28;20606;-85
2023/07/04 08:20:45;;;;;;;7.45;5.28;;;;;;;-143.21;64.69;71062.97;5111285;27;20204;-87
2023/07/04 08:23:54;;;;;;;10.25;5.03;;;;;;;-143.21;63.47;71066.94;5116497;27;20785;-85
2023/07/04 08:26:44;;;;;;;11.82;5.82;;;;;;;-143.21;63.25;71051.09;5112651;27;20272;-86
2023/07/04 08:29:11;;;;;;;6.45;4.97;;;;;;;-143.21;63.33;71037.22;5118860;27;20265;-86
2023/07/04 08:31:39;;;;;;;8.15;5.40;;;;;;;-143.21;63.17;71031.25;5133901;27;20226;-85
2023/07/04 08:34:12;;;;;;;10.65;5.60;;;;;;;-143.21;61.80;71027.28;5134609;27;20651;-85
2023/07/04 08:36:41;;;;;;;8.48;5.30;;;;;;;-143.21;62.20;71021.34;5133936;27;20216;-85
2023/07/04 08:39:09;;;;;;;7.15;5.63;;;;;;;-143.21;61.73;71011.44;5133237;27;20238;-86
2023/07/04 08:41:48;;;;;;;7.05;5.80;;;;;;;-143.21;60.89;71007.47;5134363;27;20187;-89
2023/07/04 08:44:21;;;;;;;7.07;5.50;;;;;;;-143.21;60.08;70993.59;5143799;27;20278;-93
2023/07/04 08:46:50;;;;;;;10.27;5.45;;;;;;;-143.21;60.83;70969.81;5137687;27;20203;-86
2023/07/04 08:49:29;;;;;;;7.75;5.97;;;;;;;-143.21;60.25;70951.97;5133213;27;20188;-84
2023/07/04 08:52:02;;;;;;;9.73;5.78;;;;;;;-143.21;60.02;70932.13;5133537;27;20215;-85
2023/07/04 08:54:29;;;;;;;10.27;6.00;;;;;;;-143.21;59.76;70918.25;5133319;27;20210;-85
2023/07/04 08:57:00;;;;;;;8.77;5.18;;;;;;;-143.21;58.89;70892.50;5133824;27;20210;-84
2023/07/04 08:59:40;;;;;;;12.35;5.85;;;;;;;-143.21;58.50;70876.63;5133739;27;20706;-84
2023/07/04 09:02:35;;;;;;;10.93;5.88;;;;;;;-143.21;57.37;70852.84;5131938;27;20304;-84
2023/07/04 09:05:10;;;;;;;12.88;7.13;;;;;;;-143.21;57.66;70838.97;5128373;27;20207;-86
2023/07/04 09:07:44;;;;;;;7.93;5.65;;;;;;;-143.21;57.46;70829.06;5125122;27;20233;-86
2023/07/04 09:10:22;;;;;;;10.40;6.28;;;;;;;-143.21;56.87;70813.19;5112095;28;20226;-86
2023/07/04 09:12:50;;;;;;;10.75;6.50;;;;;;;-143.21;57.22;70795.38;5112076;28;20195;-89
2023/07/04 09:15:24;;;;;;;8.23;6.10;;;;;;;-143.21;57.00;70781.50;5111851;28;20207;-86
2023/07/04 09:18:01;;;;;;;12.57;6.15;;;;;;;-143.21;56.69;70769.59;5112097;28;20191;-88
2023/07/04 09:20:34;;;;;;;9.65;6.38;;;;;;;-143.21;55.83;70761.66;5112079;28;20200;-88
2023/07/04 09:23:06;;;;;;;12.15;6.40;;;;;;;-143.21;55.37;70751.75;5112703;28;20697;-89
2023/07/04 09:25:33;;;;;;;12.82;6.68;;;;;;;-143.21;55.33;70743.81;5112588;28;20192;-88
2023/07/04 09:28:09;;;;;;;10.57;6.40;;;;;;;-143.21;55.91;70735.91;5113378;28;20218;-89
2023/07/04 09:30:38;;;;;;;10.63;6.05;;;;;;;-143.21;55.46;70729.94;5114661;28;20242;-90
2023/07/04 09:33:11;;;;;;;8.90;6.57;;;;;;;-143.21;55.58;70710.13;5115394;28;20200;-88
2023/07/04 09:35:45;;;;;;;9.13;6.97;;;;;;;-143.21;55.08;70694.25;5114507;28;20616;-89
2023/07/04 09:38:12;;;;;;;12.85;6.50;;;;;;;-143.21;54.41;70680.38;5113041;28;20188;-88
2023/07/04 09:40:55;;;;;;;8.93;6.70;;;;;;;-143.21;54.38;70668.50;5112762;28;20295;-88
2023/07/04 09:43:28;;;;;;;8.73;5.88;;;;;;;-143.21;54.28;70666.50;5118830;28;20172;-87
2023/07/04 09:46:12;;;;;;;11.63;6.82;;;;;;;-143.21;54.03;70650.66;5117269;27;20203;-87
2023/07/04 09:48:40;;;;;;;13.32;6.97;;;;;;;-143.21;53.37;70646.69;5113429;28;20223;-88
2023/07/04 09:51:24;;;;;;;10.40;6.85;;;;;;;-143.21;52.49;70638.75;5113724;27;20312;-88
2023/07/04 09:53:51;;;;;;;8.80;6.13;;;;;;;-143.21;52.94;70632.81;5113749;28;20195;-89
2023/07/04 09:56:57;;;;;;;9.05;6.43;;;;;;;-143.21;52.61;70622.91;5115768;28;20196;-89
2023/07/04 09:59:28;;;;;;;13.55;7.30;;;;;;;-143.21;52.93;70607.06;5115382;28;20336;-89
2023/07/04 10:02:17;;;;;;;10.25;6.60;;;;;;;-143.21;52.25;70599.13;5115270;28;20192;-86
2023/07/04 10:04:51;;;;;;;11.65;6.65;;;;;;;-143.21;52.15;70597.13;5114764;28;20212;-86
2023/07/04 10:07:24;;;;;;;12.88;7.00;;;;;;;-143.21;51.78;70585.25;5116130;28;20203;-83
2023/07/04 10:09:54;;;;;;;11.75;6.63;;;;;;;-143.21;51.31;70571.38;5118181;28;20196;-87
2023/07/04 10:12:24;;;;;;;10.77;7.03;;;;;;;-143.21;51.82;70549.56;5124122;28;20201;-85
2023/07/04 10:14:56;;;;;;;10.60;6.70;;;;;;;-143.21;51.65;70529.75;5120693;28;20662;-85
2023/07/04 10:17:30;;;;;;;8.85;6.80;;;;;;;-143.21;51.24;70549.56;5117741;28;20218;-84
2023/07/04 10:20:04;;;;;;;9.95;7.05;;;;;;;-143.21;50.86;70547.59;5113028;28;20271;-91
2023/07/04 10:22:35;;;;;;;9.68;7.28;;;;;;;-143.21;51.68;70553.53;5116429;28;20196;-82
2023/07/04 10:25:03;;;;;;;9.10;6.93;;;;;;;-143.21;51.47;70547.59;5117865;28;20195;-86
2023/07/04 10:27:32;;;;;;;10.48;6.50;;;;;;;-143.21;50.86;70531.72;5116490;28;20196;-87
2023/07/04 10:30:04;;;;;;;12.40;6.90;;;;;;;-143.21;50.68;70513.88;5117082;27;20210;-84
2023/07/04 10:32:37;;;;;;;10.95;6.72;;;;;;;-143.21;50.82;70513.88;5117204;28;20234;-87
2023/07/04 10:35:06;;;;;;;8.63;7.13;;;;;;;-143.21;49.75;70515.88;5117592;28;20723;-86
2023/07/04 10:37:38;;;;;;;15.98;7.60;;;;;;;-143.21;50.12;70511.91;5118216;28;20196;-88
2023/07/04 10:40:11;;;;;;;11.20;6.88;;;;;;;-143.21;50.63;70509.94;5117572;28;20212;-89
2023/07/04 10:42:42;;;;;;;8.85;6.97;;;;;;;-143.21;50.50;70496.06;5115741;28;20208;-88
2023/07/04 10:45:15;;;;;;;11.65;7.22;;;;;;;-143.21;51.50;70458.41;5116746;27;20189;-87
2023/07/04 10:47:48;;;;;;;11.68;7.15;;;;;;;-143.21;49.72;70418.75;5124710;27;20188;-82
2023/07/04 10:50:21;;;;;;;9.60;6.90;;;;;;;-143.21;49.23;70383.06;5116668;28;20208;-89
2023/07/04 10:52:50;;;;;;;11.20;7.35;;;;;;;-143.21;48.58;70377.13;5115319;28;20559;-88
2023/07/04 10:55:21;;;;;;;11.43;7.05;;;;;;;-143.21;48.34;70363.25;5114703;28;20671;-88
2023/07/04 10:57:58;;;;;;;8.75;6.85;;;;;;;-143.21;47.95;70357.31;5117892;28;20191;-91
2023/07/04 11:00:31;;;;;;;9.43;6.93;;;;;;;-143.21;48.16;70361.28;5117720;28;20200;-90
2023/07/04 11:03:04;;;;;;;9.32;7.22;;;;;;;-143.21;47.79;70345.41;5120125;28;20179;-91
2023/07/04 11:05:35;;;;;;;7.93;7.13;;;;;;;-143.21;47.67;70365.25;5118436;28;20196;-89
2023/07/04 11:08:07;;;;;;;10.95;7.20;;;;;;;-143.21;47.43;70375.16;5116797;28;20195;-88
2023/07/04 11:10:40;;;;;;;10.70;7.28;;;;;;;-143.21;48.15;70375.16;5114162;28;20236;-89
2023/07/04 11:13:11;;;;;;;11.10;6.97;;;;;;;-143.21;48.63;70361.28;5115191;28;20188;-89
2023/07/04 11:15:42;;;;;;;12.10;7.13;;;;;;;-143.21;48.29;70331.53;5117918;28;20176;-89
2023/07/04 11:18:15;;;;;;;9.43;6.90;;;;;;;-143.21;47.97;70301.81;5116706;28;20208;-89
2023/07/04 11:20:55;;;;;;;10.02;7.45;;;;;;;-143.21;46.98;70264.16;5117194;28;20247;-89
2023/07/04 11:23:24;;;;;;;11.40;7.28;;;;;;;-143.21;47.03;70234.44;5116554;28;20219;-87